createdAt,value
2022-12-19T00:01:59.061Z,14.77
2022-12-19T00:04:26.914Z,14.73
2022-12-19T00:06:54.942Z,14.13
2022-12-19T00:09:23.084Z,17.05
2022-12-19T00:11:50.797Z,15.32
2022-12-19T00:14:20.253Z,15.38
2022-12-19T00:16:48.293Z,14.70
2022-12-19T00:19:16.576Z,14.43
2022-12-19T00:21:44.194Z,15.77
2022-12-19T00:24:20.561Z,15.32
2022-12-19T00:26:50.029Z,15.45
2022-12-19T00:29:19.100Z,15.05
2022-12-19T00:31:47.005Z,16.40
2022-12-19T00:34:14.935Z,14.88
2022-12-19T00:36:43.125Z,15.93
2022-12-19T00:39:11.659Z,13.65
2022-12-19T00:41:42.227Z,17.75
2022-12-19T00:44:12.852Z,13.55
2022-12-19T00:46:44.567Z,15.55
2022-12-19T00:49:20.558Z,15.23
2022-12-19T00:51:48.310Z,15.43
2022-12-19T00:54:16.411Z,13.45
2022-12-19T00:56:44.481Z,14.98
2022-12-19T00:59:12.141Z,16.30
2022-12-19T01:01:43.211Z,15.05
2022-12-19T01:04:31.231Z,15.50
2022-12-19T01:07:03.121Z,14.25
2022-12-19T01:09:31.605Z,14.63
2022-12-19T01:12:17.352Z,15.05
2022-12-19T01:14:45.085Z,14.85
2022-12-19T01:17:14.474Z,14.32
2022-12-19T01:19:44.520Z,15.02
2022-12-19T01:22:12.939Z,16.00
2022-12-19T01:24:41.227Z,15.60
2022-12-19T01:27:09.367Z,14.23
2022-12-19T01:29:51.761Z,16.80
2022-12-19T01:32:25.015Z,15.80
2022-12-19T01:34:52.701Z,15.93
2022-12-19T01:37:21.457Z,14.95
2022-12-19T01:39:49.472Z,14.75
2022-12-19T01:42:23.536Z,15.77
2022-12-19T01:45:05.354Z,15.13
2022-12-19T01:47:41.114Z,15.90
2022-12-19T01:50:13.003Z,17.13
2022-12-19T01:52:40.957Z,13.25
2022-12-19T01:55:09.848Z,16.17
2022-12-19T01:57:39.121Z,15.38
2022-12-19T02:00:10.095Z,14.70
2022-12-19T02:02:44.835Z,15.38
2022-12-19T02:05:12.669Z,14.60
2022-12-19T02:07:42.986Z,16.10
2022-12-19T02:10:10.910Z,15.85
2022-12-19T02:12:43.085Z,14.60
2022-12-19T02:15:12.153Z,15.82
2022-12-19T02:17:52.829Z,15.55
2022-12-19T02:20:51.758Z,14.40
2022-12-19T02:23:49.317Z,14.57
2022-12-19T02:26:46.467Z,13.90
2022-12-19T02:29:58.838Z,13.40
2022-12-19T02:32:36.307Z,15.68
2022-12-19T02:35:11.138Z,15.63
2022-12-19T02:37:49.270Z,16.10
2022-12-19T02:40:24.221Z,14.10
2022-12-19T02:42:58.827Z,15.30
2022-12-19T02:45:29.062Z,14.13
2022-12-19T02:48:03.272Z,16.10
2022-12-19T02:50:38.858Z,15.60
2022-12-19T02:53:07.382Z,14.07
2022-12-19T02:55:43.277Z,15.60
2022-12-19T02:58:33.869Z,13.85
2022-12-19T03:01:11.388Z,13.85
2022-12-19T03:03:51.585Z,15.63
2022-12-19T03:06:26.982Z,14.77
2022-12-19T03:09:03.890Z,14.77
2022-12-19T03:11:36.339Z,16.45
2022-12-19T03:14:08.215Z,13.73
2022-12-19T03:16:37.072Z,15.15
2022-12-19T03:19:11.204Z,15.30
2022-12-19T03:21:42.298Z,16.25
2022-12-19T03:24:13.439Z,16.77
2022-12-19T03:26:46.568Z,15.00
2022-12-19T03:29:18.808Z,13.98
2022-12-19T03:31:47.657Z,16.08
2022-12-19T03:34:21.474Z,14.77
2022-12-19T03:36:58.283Z,14.30
2022-12-19T03:39:28.983Z,14.60
2022-12-19T03:42:16.792Z,16.42
2022-12-19T03:44:44.952Z,17.23
2022-12-19T03:47:20.403Z,14.15
2022-12-19T03:49:50.927Z,14.98
2022-12-19T03:52:28.273Z,14.35
2022-12-19T03:55:03.098Z,17.35
2022-12-19T03:57:37.293Z,15.73
2022-12-19T04:00:07.991Z,14.57
2022-12-19T04:02:39.217Z,16.80
2022-12-19T04:05:11.314Z,17.67
2022-12-19T04:07:40.628Z,16.38
2022-12-19T04:10:12.008Z,16.55
2022-12-19T04:12:43.478Z,18.00
2022-12-19T04:15:15.020Z,16.65
2022-12-19T04:17:48.830Z,16.60
2022-12-19T04:20:19.828Z,15.05
2022-12-19T04:22:53.924Z,15.73
2022-12-19T04:25:31.062Z,15.93
2022-12-19T04:28:02.883Z,16.75
2022-12-19T04:30:31.129Z,16.65
2022-12-19T04:33:05.601Z,16.42
2022-12-19T04:35:37.504Z,18.10
2022-12-19T04:38:05.500Z,17.98
2022-12-19T04:40:40.872Z,17.80
2022-12-19T04:43:09.617Z,16.42
2022-12-19T04:45:37.990Z,17.33
2022-12-19T04:48:08.138Z,19.75
2022-12-19T04:50:38.331Z,17.75
2022-12-19T04:53:06.909Z,16.70
2022-12-19T04:55:34.774Z,16.90
2022-12-19T04:58:02.947Z,14.90
2022-12-19T05:00:30.703Z,14.98
2022-12-19T05:02:58.954Z,16.40
2022-12-19T05:05:26.882Z,15.15
2022-12-19T05:07:56.974Z,16.95
2022-12-19T05:10:24.866Z,16.70
2022-12-19T05:12:54.842Z,15.73
2022-12-19T05:15:22.739Z,16.83
2022-12-19T05:17:50.914Z,15.80
2022-12-19T05:20:18.988Z,18.10
2022-12-19T05:22:47.128Z,16.70
2022-12-19T05:25:17.100Z,18.30
2022-12-19T05:27:45.327Z,15.13
2022-12-19T05:30:13.979Z,16.50
2022-12-19T05:32:41.870Z,15.95
2022-12-19T05:35:09.879Z,16.35
2022-12-19T05:37:37.985Z,14.10
2022-12-19T05:40:06.704Z,16.00
2022-12-19T05:42:35.908Z,15.82
2022-12-19T05:45:03.960Z,16.00
2022-12-19T05:47:32.535Z,16.63
2022-12-19T05:50:00.290Z,16.85
2022-12-19T05:52:28.481Z,16.20
2022-12-19T05:54:56.366Z,17.60
2022-12-19T05:57:24.544Z,18.90
2022-12-19T05:59:53.753Z,17.08
2022-12-19T06:02:22.070Z,16.60
2022-12-19T06:04:49.898Z,17.48
2022-12-19T06:07:21.097Z,17.77
2022-12-19T06:09:49.407Z,18.23
2022-12-19T06:12:17.460Z,17.17
2022-12-19T06:14:45.106Z,17.65
2022-12-19T06:17:14.217Z,15.20
2022-12-19T06:19:42.045Z,17.70
2022-12-19T06:22:10.398Z,17.70
2022-12-19T06:24:38.582Z,15.95
2022-12-19T06:27:07.019Z,16.25
2022-12-19T06:29:34.830Z,17.48
2022-12-19T06:32:03.210Z,16.00
2022-12-19T06:35:02.721Z,17.52
2022-12-19T06:37:20.908Z,17.60
2022-12-19T06:39:48.968Z,17.80
2022-12-19T06:42:34.062Z,16.33
2022-12-19T06:45:02.001Z,17.20
2022-12-19T06:47:30.281Z,17.13
2022-12-19T06:49:59.472Z,18.20
2022-12-19T06:52:27.449Z,17.80
2022-12-19T06:54:55.914Z,18.25
2022-12-19T06:57:24.090Z,17.63
2022-12-19T06:59:51.999Z,16.77
2022-12-19T07:02:28.442Z,18.65
2022-12-19T07:05:02.260Z,17.63
2022-12-19T07:07:30.476Z,17.58
2022-12-19T07:09:58.587Z,16.73
2022-12-19T07:12:27.755Z,16.58
2022-12-19T07:14:55.563Z,17.48
2022-12-19T07:17:25.978Z,15.65
2022-12-19T07:19:55.875Z,17.70
2022-12-19T07:22:27.853Z,20.50
2022-12-19T07:24:57.517Z,19.25
2022-12-19T07:27:29.706Z,19.52
2022-12-19T07:30:01.819Z,19.38
2022-12-19T07:32:30.142Z,18.33
2022-12-19T07:34:58.052Z,19.80
2022-12-19T07:37:28.496Z,20.13
2022-12-19T07:39:56.326Z,17.92
2022-12-19T07:42:28.115Z,18.63
2022-12-19T07:44:58.930Z,18.23
2022-12-19T07:47:27.978Z,19.15
2022-12-19T07:49:56.033Z,19.00
2022-12-19T07:52:23.966Z,18.42
2022-12-19T07:54:53.375Z,20.83
2022-12-19T07:57:21.955Z,19.10
2022-12-19T07:59:50.566Z,19.00
2022-12-19T08:02:19.261Z,17.27
2022-12-19T08:04:47.592Z,20.70
2022-12-19T08:07:15.799Z,19.67
2022-12-19T08:09:43.972Z,19.58
2022-12-19T08:12:13.932Z,19.83
2022-12-19T08:14:42.222Z,20.92
2022-12-19T08:17:20.119Z,20.40
2022-12-19T08:19:49.017Z,20.05
2022-12-19T08:22:17.004Z,21.77
2022-12-19T08:24:45.037Z,20.27
2022-12-19T08:27:14.972Z,21.67
2022-12-19T08:29:42.949Z,19.05
2022-12-19T08:32:13.343Z,19.80
2022-12-19T08:34:45.360Z,19.67
2022-12-19T08:37:13.790Z,21.75
2022-12-19T08:39:41.814Z,20.42
2022-12-19T08:42:10.066Z,18.25
2022-12-19T08:44:39.332Z,20.52
2022-12-19T08:47:08.033Z,21.08
2022-12-19T08:49:36.022Z,21.55
2022-12-19T08:52:04.454Z,19.88
2022-12-19T08:54:32.394Z,21.48
2022-12-19T08:57:00.961Z,19.30
2022-12-19T08:59:31.167Z,22.65
2022-12-19T09:02:02.724Z,20.73
2022-12-19T09:05:28.871Z,20.02
2022-12-19T09:07:20.524Z,22.40
2022-12-19T09:09:48.465Z,19.42
2022-12-19T09:12:17.814Z,20.42
2022-12-19T09:14:45.935Z,19.52
2022-12-19T09:17:15.861Z,18.33
2022-12-19T09:19:47.525Z,20.50
2022-12-19T09:22:16.414Z,19.42
2022-12-19T09:24:44.671Z,19.85
2022-12-19T09:27:12.889Z,21.65
2022-12-19T09:29:42.329Z,20.17
2022-12-19T09:32:10.773Z,19.25
2022-12-19T09:34:51.318Z,21.30
2022-12-19T09:37:40.133Z,20.27
2022-12-19T09:40:42.889Z,22.33
2022-12-19T09:43:14.723Z,20.55
2022-12-19T09:45:56.924Z,21.10
2022-12-19T09:48:25.988Z,19.55
2022-12-19T09:51:10.668Z,20.15
2022-12-19T09:53:54.662Z,20.42
2022-12-19T09:56:25.210Z,20.02
2022-12-19T09:58:58.524Z,21.15
2022-12-19T10:01:33.579Z,21.90
2022-12-19T10:04:06.863Z,20.27
2022-12-19T10:07:22.102Z,23.58
2022-12-19T10:12:24.488Z,19.88
2022-12-19T10:12:45.957Z,21.17
2022-12-19T10:15:24.598Z,20.63
2022-12-19T10:18:15.794Z,21.25
2022-12-19T10:20:51.759Z,20.02
2022-12-19T10:23:49.046Z,21.65
2022-12-19T10:26:20.725Z,20.30
2022-12-19T10:29:12.413Z,20.60
2022-12-19T10:31:54.960Z,20.63
2022-12-19T10:34:24.934Z,19.55
2022-12-19T10:37:25.303Z,19.50
2022-12-19T10:39:56.594Z,22.42
2022-12-19T10:42:33.665Z,22.33
2022-12-19T10:45:05.938Z,21.55
2022-12-19T10:47:34.462Z,21.55
2022-12-19T10:50:07.507Z,23.30
2022-12-19T10:52:52.600Z,22.30
2022-12-19T10:55:44.597Z,22.02
2022-12-19T10:58:25.618Z,20.55
2022-12-19T11:01:22.906Z,21.35
2022-12-19T11:03:56.628Z,22.42
2022-12-19T11:06:46.528Z,21.70
2022-12-19T11:09:27.701Z,22.92
2022-12-19T11:16:14.981Z,24.17
2022-12-19T11:19:29.708Z,23.50
2022-12-19T11:24:57.939Z,21.45
2022-12-19T11:29:42.049Z,22.55
2022-12-19T11:29:45.634Z,22.52
2022-12-19T11:30:38.373Z,21.75
2022-12-19T11:30:49.026Z,20.30
2022-12-19T11:34:51.272Z,22.77
2022-12-19T11:37:26.371Z,23.42
2022-12-19T11:39:59.639Z,20.63
2022-12-19T11:42:32.307Z,20.23
2022-12-19T11:45:11.329Z,24.95
2022-12-19T11:47:43.935Z,22.55
2022-12-19T11:50:19.165Z,20.60
2022-12-19T11:53:04.231Z,22.48
2022-12-19T11:55:43.483Z,22.80
2022-12-19T11:58:12.887Z,22.10
2022-12-19T12:00:51.253Z,23.20
2022-12-19T12:04:01.640Z,22.60
2022-12-19T12:06:35.222Z,21.75
2022-12-19T12:13:35.581Z,22.05
2022-12-19T12:20:46.207Z,23.45
2022-12-19T12:27:25.028Z,20.88
2022-12-19T12:31:18.381Z,22.00
2022-12-19T12:31:26.705Z,22.87
2022-12-19T12:31:30.701Z,21.80
2022-12-19T12:31:46.050Z,22.95
2022-12-19T12:31:49.681Z,20.60
2022-12-19T12:35:22.564Z,20.88
2022-12-19T12:39:18.378Z,21.02
2022-12-19T12:42:07.176Z,21.52
2022-12-19T12:44:44.818Z,23.38
2022-12-19T12:47:20.442Z,22.45
2022-12-19T12:49:54.232Z,21.27
2022-12-19T12:52:31.151Z,21.30
2022-12-19T12:54:59.987Z,21.90
2022-12-19T12:57:39.099Z,21.88
2022-12-19T13:00:24.961Z,23.20
2022-12-19T13:02:57.356Z,23.25
2022-12-19T13:05:39.780Z,23.27
2022-12-19T13:08:36.990Z,23.67
2022-12-19T13:11:07.892Z,21.40
2022-12-19T13:13:55.569Z,22.27
2022-12-19T13:16:54.383Z,22.38
2022-12-19T13:19:28.318Z,22.85
2022-12-19T13:22:41.283Z,24.27
2022-12-19T13:25:44.543Z,22.50
2022-12-19T13:28:36.179Z,21.45
2022-12-19T13:31:22.403Z,19.70
2022-12-19T13:34:18.746Z,23.45
2022-12-19T13:39:50.240Z,20.80
2022-12-19T13:40:18.556Z,22.70
2022-12-19T13:43:16.611Z,23.40
2022-12-19T13:45:52.230Z,21.27
2022-12-19T13:48:29.568Z,21.98
2022-12-19T13:50:58.747Z,20.30
2022-12-19T13:53:29.606Z,22.60
2022-12-19T13:56:02.987Z,25.08
2022-12-19T13:58:34.226Z,21.77
2022-12-19T14:01:20.861Z,22.17
2022-12-19T14:03:51.615Z,23.67
2022-12-19T14:06:22.683Z,21.30
2022-12-19T14:11:23.460Z,24.07
2022-12-19T14:12:27.053Z,21.70
2022-12-19T14:14:58.091Z,21.83
2022-12-19T14:17:39.586Z,21.73
2022-12-19T14:22:04.059Z,22.98
2022-12-19T14:23:07.641Z,22.02
2022-12-19T14:28:14.331Z,22.23
2022-12-19T14:28:41.439Z,20.58
2022-12-19T14:31:16.066Z,21.65
2022-12-19T14:34:11.204Z,23.50
2022-12-19T14:36:38.558Z,21.10
2022-12-19T14:39:24.040Z,21.20
2022-12-19T14:42:19.586Z,21.43
2022-12-19T14:52:35.666Z,22.70
2022-12-19T14:54:02.257Z,23.50
2022-12-19T14:54:08.026Z,23.30
2022-12-19T14:54:51.569Z,23.27
2022-12-19T14:56:57.581Z,23.10
2022-12-19T14:59:06.702Z,21.20
2022-12-19T15:01:37.175Z,20.13
2022-12-19T15:04:49.572Z,22.63
2022-12-19T15:07:07.655Z,24.77
2022-12-19T15:11:05.269Z,22.73
2022-12-19T15:14:48.068Z,20.88
2022-12-19T15:15:58.826Z,21.25
2022-12-19T15:18:30.005Z,21.58
2022-12-19T15:20:59.552Z,22.15
2022-12-19T15:23:28.295Z,21.70
2022-12-19T15:26:06.065Z,23.00
2022-12-19T15:28:39.852Z,23.27
2022-12-19T15:31:15.481Z,23.40
2022-12-19T15:34:14.328Z,21.60
2022-12-19T15:36:34.592Z,20.97
2022-12-19T15:39:03.780Z,23.77
2022-12-19T15:41:32.835Z,22.60
2022-12-19T15:44:06.809Z,20.03
2022-12-19T15:46:35.084Z,22.75
2022-12-19T15:49:04.511Z,20.77
2022-12-19T15:51:32.585Z,22.73
2022-12-19T15:54:30.124Z,20.70
2022-12-19T15:56:54.021Z,23.50
2022-12-19T15:59:36.547Z,21.90
2022-12-19T16:02:17.418Z,20.73
2022-12-19T16:04:48.757Z,21.85
2022-12-19T16:07:18.742Z,22.40
2022-12-19T16:09:47.436Z,21.80
2022-12-19T16:12:18.192Z,20.30
2022-12-19T16:14:48.063Z,21.70
2022-12-19T16:17:22.290Z,21.73
2022-12-19T16:19:52.239Z,19.80
2022-12-19T16:23:33.581Z,21.90
2022-12-19T16:26:02.610Z,21.23
2022-12-19T16:28:34.037Z,22.80
2022-12-19T16:31:16.356Z,22.27
2022-12-19T16:33:44.400Z,21.25
2022-12-19T16:36:13.827Z,22.40
2022-12-19T16:38:42.097Z,22.30
2022-12-19T16:41:15.869Z,21.20
2022-12-19T16:43:46.176Z,22.73
2022-12-19T16:46:19.342Z,22.77
2022-12-19T16:48:48.304Z,21.20
2022-12-19T16:51:22.691Z,21.13
2022-12-19T16:53:52.775Z,23.27
2022-12-19T16:56:26.545Z,20.20
2022-12-19T16:58:54.898Z,22.92
2022-12-19T17:01:23.490Z,21.15
2022-12-19T17:03:51.628Z,21.60
2022-12-19T17:06:23.606Z,22.63
2022-12-19T17:08:52.073Z,21.20
2022-12-19T17:11:26.316Z,20.00
2022-12-19T17:14:04.993Z,22.55
2022-12-19T17:16:33.979Z,20.77
2022-12-19T17:19:02.729Z,20.13
2022-12-19T17:21:32.322Z,21.30
2022-12-19T17:24:00.641Z,21.57
2022-12-19T17:26:28.564Z,20.63
2022-12-19T17:28:58.707Z,21.20
2022-12-19T17:31:29.750Z,21.95
2022-12-19T17:33:59.092Z,21.35
2022-12-19T17:36:36.535Z,21.40
2022-12-19T17:39:19.221Z,21.88
2022-12-19T17:41:48.129Z,22.30
2022-12-19T17:44:16.173Z,20.93
2022-12-19T17:46:44.980Z,20.77
2022-12-19T17:49:18.641Z,22.15
2022-12-19T17:51:52.300Z,20.65
2022-12-19T17:54:23.378Z,20.92
2022-12-19T17:56:51.856Z,22.10
2022-12-19T17:59:20.713Z,19.80
2022-12-19T18:01:49.811Z,21.00
2022-12-19T18:04:21.188Z,21.47
2022-12-19T18:06:50.195Z,22.10
2022-12-19T18:09:20.003Z,21.73
2022-12-19T18:11:50.709Z,21.98
2022-12-19T18:14:20.186Z,20.02
2022-12-19T18:16:51.812Z,19.40
2022-12-19T18:19:21.781Z,20.08
2022-12-19T18:21:49.900Z,20.50
2022-12-19T18:24:18.073Z,19.45
2022-12-19T18:26:46.442Z,18.83
2022-12-19T18:29:16.688Z,20.60
2022-12-19T18:31:50.448Z,19.98
2022-12-19T18:34:23.341Z,20.25
2022-12-19T18:36:52.001Z,21.40
2022-12-19T18:39:23.754Z,20.77
2022-12-19T18:41:53.183Z,19.50
2022-12-19T18:44:23.687Z,19.90
2022-12-19T18:46:55.359Z,18.13
2022-12-19T18:49:24.110Z,18.27
2022-12-19T18:51:52.173Z,20.50
2022-12-19T18:54:23.201Z,19.45
2022-12-19T18:56:51.965Z,19.70
2022-12-19T18:59:20.422Z,18.58
2022-12-19T19:01:50.561Z,17.77
2022-12-19T19:04:19.044Z,18.90
2022-12-19T19:06:52.460Z,19.58
2022-12-19T19:09:22.661Z,18.63
2022-12-19T19:11:51.375Z,18.77
2022-12-19T19:14:19.569Z,17.20
2022-12-19T19:16:47.839Z,17.23
2022-12-19T19:19:20.048Z,19.48
2022-12-19T19:21:48.270Z,17.67
2022-12-19T19:24:18.425Z,18.25
2022-12-19T19:26:47.090Z,17.13
2022-12-19T19:29:15.237Z,17.90
2022-12-19T19:31:46.910Z,17.70
2022-12-19T19:34:22.057Z,18.20
2022-12-19T19:36:56.174Z,20.00
2022-12-19T19:39:25.385Z,19.35
2022-12-19T19:41:53.673Z,17.98
2022-12-19T19:44:22.008Z,17.23
2022-12-19T19:46:50.592Z,19.58
2022-12-19T19:49:21.148Z,17.67
2022-12-19T19:51:49.255Z,17.42
2022-12-19T19:54:17.946Z,17.83
2022-12-19T19:56:46.141Z,18.70
2022-12-19T19:59:14.246Z,18.05
2022-12-19T20:01:42.752Z,18.13
2022-12-19T20:04:11.127Z,19.75
2022-12-19T20:06:40.793Z,18.23
2022-12-19T20:09:09.606Z,19.30
2022-12-19T20:11:37.682Z,19.40
2022-12-19T20:14:05.748Z,18.33
2022-12-19T20:16:34.289Z,18.15
2022-12-19T20:19:02.442Z,18.25
2022-12-19T20:21:30.921Z,18.35
2022-12-19T20:24:00.927Z,18.80
2022-12-19T20:26:29.133Z,17.85
2022-12-19T20:28:57.275Z,19.50
2022-12-19T20:31:25.818Z,18.52
2022-12-19T20:33:56.084Z,18.42
2022-12-19T20:36:25.124Z,20.23
2022-12-19T20:38:53.802Z,18.85
2022-12-19T20:41:23.136Z,19.33
2022-12-19T20:43:52.476Z,20.40
2022-12-19T20:46:22.203Z,18.60
2022-12-19T20:48:51.109Z,20.25
2022-12-19T20:51:20.995Z,19.42
2022-12-19T20:53:49.808Z,18.70
2022-12-19T20:56:19.725Z,18.92
2022-12-19T20:58:49.101Z,19.73
2022-12-19T21:01:19.837Z,18.75
2022-12-19T21:03:48.970Z,19.13
2022-12-19T21:06:18.722Z,20.77
2022-12-19T21:08:47.559Z,17.52
2022-12-19T21:11:16.555Z,19.65
2022-12-19T21:13:45.414Z,20.45
2022-12-19T21:16:17.622Z,19.67
2022-12-19T21:18:47.488Z,20.33
2022-12-19T21:21:23.178Z,21.00
2022-12-19T21:23:52.028Z,20.20
2022-12-19T21:26:23.110Z,19.05
2022-12-19T21:28:51.453Z,18.88
2022-12-19T21:31:22.481Z,20.20
2022-12-19T21:33:51.896Z,18.00
2022-12-19T21:36:22.765Z,20.38
2022-12-19T21:38:54.703Z,20.35
2022-12-19T21:41:23.317Z,18.95
2022-12-19T21:43:54.411Z,22.38
2022-12-19T21:46:26.113Z,18.85
2022-12-19T21:48:56.327Z,20.33
2022-12-19T21:51:26.940Z,18.30
2022-12-19T21:53:55.861Z,19.33
2022-12-19T21:56:26.061Z,18.70
2022-12-19T21:58:56.253Z,18.38
2022-12-19T22:01:27.365Z,19.05
2022-12-19T22:03:59.975Z,20.08
2022-12-19T22:06:30.881Z,20.90
2022-12-19T22:08:59.564Z,20.80
2022-12-19T22:11:28.737Z,18.63
2022-12-19T22:13:57.584Z,19.80
2022-12-19T22:16:27.072Z,19.75
2022-12-19T22:18:56.492Z,19.33
2022-12-19T22:21:25.712Z,19.02
2022-12-19T22:23:54.061Z,20.30
2022-12-19T22:26:24.399Z,19.45
2022-12-19T22:28:54.277Z,20.85
2022-12-19T22:31:24.319Z,18.70
2022-12-19T22:33:56.570Z,19.65
2022-12-19T22:36:28.318Z,17.53
2022-12-19T22:38:58.676Z,19.13
2022-12-19T22:41:27.558Z,20.02
2022-12-19T22:43:56.363Z,19.30
2022-12-19T22:46:27.263Z,20.23
2022-12-19T22:48:59.227Z,18.83
2022-12-19T22:51:28.686Z,21.13
2022-12-19T22:53:57.763Z,20.05
2022-12-19T22:56:27.968Z,20.00
2022-12-19T22:58:57.480Z,20.50
2022-12-19T23:01:28.815Z,20.67
2022-12-19T23:03:59.912Z,22.13
2022-12-19T23:06:31.419Z,20.55
2022-12-19T23:08:59.793Z,20.10
2022-12-19T23:11:30.567Z,19.48
2022-12-19T23:13:59.104Z,19.88
2022-12-19T23:16:27.172Z,20.52
2022-12-19T23:18:55.230Z,19.70
2022-12-19T23:21:26.509Z,20.77
2022-12-19T23:23:56.167Z,19.92
2022-12-19T23:26:27.691Z,22.30
2022-12-19T23:28:57.467Z,19.58
2022-12-19T23:31:26.531Z,20.77
2022-12-19T23:33:55.380Z,19.52
2022-12-19T23:37:00.441Z,19.58
2022-12-19T23:39:14.847Z,19.38
2022-12-19T23:41:43.142Z,19.85
2022-12-19T23:44:12.944Z,20.95
2022-12-19T23:46:41.760Z,20.02
2022-12-19T23:49:09.726Z,19.98
2022-12-19T23:51:39.256Z,18.67
2022-12-19T23:54:09.238Z,19.50
2022-12-19T23:56:37.329Z,18.38
2022-12-19T23:59:05.467Z,19.75
